createdAt,value
2019-05-30T00:00:06.702Z,9.65
2019-05-30T00:02:23.294Z,9.67
2019-05-30T00:04:51.834Z,9.71
2019-05-30T00:07:20.424Z,9.75
2019-05-30T00:09:48.936Z,9.75
2019-05-30T00:12:17.461Z,9.73
2019-05-30T00:14:46.427Z,9.70
2019-05-30T00:17:14.872Z,9.69
2019-05-30T00:19:43.381Z,9.69
2019-05-30T00:22:11.880Z,9.66
2019-05-30T00:24:40.781Z,9.62
2019-05-30T00:27:09.300Z,9.63
2019-05-30T00:29:37.797Z,9.56
2019-05-30T00:32:06.333Z,9.53
2019-05-30T00:34:34.845Z,9.52
2019-05-30T00:37:04.102Z,9.49
2019-05-30T00:39:32.732Z,9.49
2019-05-30T00:42:02.078Z,9.50
2019-05-30T00:44:30.588Z,9.47
2019-05-30T00:47:00.496Z,9.42
2019-05-30T00:49:29.079Z,9.40
2019-05-30T00:51:58.348Z,9.40
2019-05-30T00:54:26.847Z,9.42
2019-05-30T00:56:56.508Z,9.43
2019-05-30T00:59:25.079Z,9.47
2019-05-30T01:01:53.636Z,9.44
2019-05-30T01:04:22.207Z,9.38
2019-05-30T01:06:50.710Z,9.34
2019-05-30T01:09:19.212Z,9.30
2019-05-30T01:11:47.725Z,9.32
2019-05-30T01:14:16.222Z,9.34
2019-05-30T01:16:44.808Z,9.27
2019-05-30T01:19:13.295Z,9.26
2019-05-30T01:21:41.935Z,9.20
2019-05-30T01:24:10.462Z,9.15
2019-05-30T01:26:38.953Z,9.10
2019-05-30T01:29:07.815Z,9.07
2019-05-30T01:31:36.364Z,9.02
2019-05-30T01:34:05.882Z,9.01
2019-05-30T01:36:34.412Z,9.01
2019-05-30T01:39:03.833Z,8.98
2019-05-30T01:41:32.351Z,8.97
2019-05-30T01:44:01.920Z,8.85
2019-05-30T01:46:30.467Z,8.84
2019-05-30T01:49:00.162Z,8.83
2019-05-30T01:51:28.814Z,8.85
2019-05-30T01:53:58.342Z,8.84
2019-05-30T01:56:26.849Z,8.84
2019-05-30T01:58:55.385Z,8.81
2019-05-30T02:01:25.405Z,8.81
2019-05-30T02:03:54.267Z,8.78
2019-05-30T02:06:22.812Z,8.72
2019-05-30T02:08:51.348Z,8.71
2019-05-30T02:11:19.816Z,8.74
2019-05-30T02:13:48.322Z,8.72
2019-05-30T02:16:16.883Z,8.67
2019-05-30T02:18:45.388Z,8.63
2019-05-30T02:21:13.900Z,8.61
2019-05-30T02:23:42.393Z,8.62
2019-05-30T02:26:10.896Z,8.55
2019-05-30T02:28:39.375Z,8.50
2019-05-30T02:31:09.650Z,8.46
2019-05-30T02:33:38.082Z,8.40
2019-05-30T02:36:08.493Z,8.37
2019-05-30T02:38:36.798Z,8.31
2019-05-30T02:41:06.203Z,8.30
2019-05-30T02:43:35.554Z,8.33
2019-05-30T02:46:05.929Z,8.33
2019-05-30T02:48:34.575Z,8.32
2019-05-30T02:51:03.419Z,8.21
2019-05-30T02:53:31.972Z,8.15
2019-05-30T02:56:01.412Z,8.17
2019-05-30T02:58:29.952Z,8.18
2019-05-30T03:00:58.476Z,8.16
2019-05-30T03:03:26.992Z,8.09
2019-05-30T03:05:55.789Z,8.02
2019-05-30T03:08:24.548Z,8.01
2019-05-30T03:10:53.182Z,7.98
2019-05-30T03:13:22.168Z,7.94
2019-05-30T03:15:51.092Z,7.91
2019-05-30T03:18:19.715Z,7.89
2019-05-30T03:20:48.660Z,7.88
2019-05-30T03:23:17.213Z,7.90
2019-05-30T03:25:45.870Z,7.91
2019-05-30T03:28:14.421Z,7.88
2019-05-30T03:30:45.160Z,7.88
2019-05-30T03:33:32.324Z,7.89
2019-05-30T03:35:44.765Z,7.84
2019-05-30T03:38:15.482Z,7.79
2019-05-30T03:40:43.823Z,7.76
2019-05-30T03:43:13.820Z,7.73
2019-05-30T03:45:44.492Z,7.72
2019-05-30T03:48:16.218Z,7.75
2019-05-30T03:50:48.112Z,7.81
2019-05-30T03:53:16.843Z,7.82
2019-05-30T03:55:48.383Z,7.67
2019-05-30T03:58:44.350Z,7.70
2019-05-30T04:01:15.871Z,7.70
2019-05-30T04:03:56.179Z,7.72
2019-05-30T04:06:33.891Z,7.70
2019-05-30T04:09:09.084Z,7.68
2019-05-30T04:11:55.221Z,7.72
2019-05-30T04:14:28.961Z,7.75
2019-05-30T04:16:57.541Z,7.82
2019-05-30T04:19:26.062Z,7.84
2019-05-30T04:21:54.591Z,7.86
2019-05-30T04:24:23.123Z,7.90
2019-05-30T04:26:51.646Z,7.90
2019-05-30T04:29:20.140Z,7.93
2019-05-30T04:31:48.645Z,7.91
2019-05-30T04:34:19.414Z,7.92
2019-05-30T04:36:47.364Z,7.91
2019-05-30T04:39:17.162Z,7.87
2019-05-30T04:41:45.833Z,7.85
2019-05-30T04:44:16.097Z,7.79
2019-05-30T04:46:44.625Z,7.70
2019-05-30T04:49:14.472Z,7.68
2019-05-30T04:51:43.340Z,7.71
2019-05-30T04:54:12.621Z,7.73
2019-05-30T04:56:41.511Z,7.76
2019-05-30T04:59:10.901Z,7.79
2019-05-30T05:01:39.554Z,7.78
2019-05-30T05:04:08.094Z,7.77
2019-05-30T05:06:36.566Z,7.82
2019-05-30T05:09:07.182Z,7.84
2019-05-30T05:11:35.681Z,7.86
2019-05-30T05:14:04.243Z,7.87
2019-05-30T05:16:35.987Z,7.85
2019-05-30T05:19:02.937Z,7.85
2019-05-30T05:21:31.528Z,7.83
2019-05-30T05:24:00.033Z,7.76
2019-05-30T05:26:28.505Z,7.76
2019-05-30T05:28:57.034Z,7.80
2019-05-30T05:31:25.534Z,7.83
2019-05-30T05:33:57.179Z,7.88
2019-05-30T05:36:25.179Z,7.92
2019-05-30T05:38:53.716Z,7.94
2019-05-30T05:41:22.402Z,7.98
2019-05-30T05:43:50.815Z,8.00
2019-05-30T05:46:20.364Z,8.04
2019-05-30T05:48:48.912Z,8.06
2019-05-30T05:51:18.532Z,8.09
2019-05-30T05:53:47.048Z,8.09
2019-05-30T05:56:16.812Z,8.12
2019-05-30T05:58:45.425Z,8.14
2019-05-30T06:01:13.930Z,8.16
2019-05-30T06:03:42.536Z,8.16
2019-05-30T06:06:11.050Z,8.13
2019-05-30T06:08:39.561Z,8.12
2019-05-30T06:11:08.077Z,8.11
2019-05-30T06:13:36.565Z,8.12
2019-05-30T06:16:05.122Z,8.15
2019-05-30T06:18:33.631Z,8.17
2019-05-30T06:21:02.190Z,8.21
2019-05-30T06:23:30.685Z,8.25
2019-05-30T06:25:59.188Z,8.26
2019-05-30T06:28:28.227Z,8.29
2019-05-30T06:30:59.023Z,8.32
2019-05-30T06:33:27.251Z,8.35
2019-05-30T06:35:55.742Z,8.41
2019-05-30T06:38:25.293Z,8.39
2019-05-30T06:40:53.785Z,8.37
2019-05-30T06:43:24.215Z,8.34
2019-05-30T06:45:52.845Z,8.33
2019-05-30T06:48:22.579Z,8.37
2019-05-30T06:50:51.190Z,8.39
2019-05-30T06:53:20.908Z,8.42
2019-05-30T06:55:49.508Z,8.46
2019-05-30T06:58:18.231Z,8.48
2019-05-30T07:00:46.841Z,8.49
2019-05-30T07:03:15.442Z,8.53
2019-05-30T07:05:44.315Z,8.59
2019-05-30T07:08:12.993Z,8.65
2019-05-30T07:10:41.766Z,8.69
2019-05-30T07:13:10.276Z,8.80
2019-05-30T07:15:38.805Z,9.11
2019-05-30T07:18:07.373Z,9.60
2019-05-30T07:20:35.922Z,10.01
2019-05-30T07:23:04.560Z,10.41
2019-05-30T07:25:34.113Z,10.81
2019-05-30T07:28:02.710Z,11.21
2019-05-30T07:30:32.059Z,11.60
2019-05-30T07:33:00.583Z,11.96
2019-05-30T07:35:30.007Z,12.02
2019-05-30T07:37:58.550Z,12.37
2019-05-30T07:40:27.048Z,12.66
2019-05-30T07:42:55.509Z,12.78
2019-05-30T07:45:24.870Z,12.73
2019-05-30T07:47:53.460Z,13.01
2019-05-30T07:50:22.134Z,13.17
2019-05-30T07:52:50.625Z,13.42
2019-05-30T07:55:20.083Z,13.41
2019-05-30T07:57:48.570Z,13.63
2019-05-30T08:00:17.730Z,13.53
2019-05-30T08:02:46.231Z,13.52
2019-05-30T08:05:23.957Z,13.46
2019-05-30T08:07:45.410Z,13.48
2019-05-30T08:10:14.429Z,13.76
2019-05-30T08:12:42.919Z,14.15
2019-05-30T08:15:12.597Z,14.43
2019-05-30T08:17:44.263Z,14.61
2019-05-30T08:20:11.860Z,14.75
2019-05-30T08:22:40.384Z,14.77
2019-05-30T08:25:10.001Z,14.80
2019-05-30T08:27:38.788Z,14.96
2019-05-30T08:30:12.629Z,15.21
2019-05-30T08:32:41.132Z,15.51
2019-05-30T08:35:10.050Z,15.76
2019-05-30T08:37:39.412Z,15.93
2019-05-30T08:40:09.523Z,15.95
2019-05-30T08:42:38.542Z,15.77
2019-05-30T08:45:10.258Z,15.93
2019-05-30T08:47:40.406Z,16.15
2019-05-30T08:50:10.904Z,16.26
2019-05-30T08:52:40.870Z,16.46
2019-05-30T08:55:09.979Z,16.54
2019-05-30T08:57:38.739Z,16.61
2019-05-30T09:00:09.315Z,16.67
2019-05-30T09:02:38.837Z,16.57
2019-05-30T09:05:08.602Z,16.61
2019-05-30T09:07:38.264Z,16.75
2019-05-30T09:10:08.114Z,16.89
2019-05-30T09:12:38.609Z,17.01
2019-05-30T09:15:09.626Z,17.01
2019-05-30T09:17:39.344Z,17.11
2019-05-30T09:20:09.424Z,17.12
2019-05-30T09:22:39.424Z,17.14
2019-05-30T09:25:11.729Z,17.32
2019-05-30T09:27:41.418Z,17.59
2019-05-30T09:30:13.395Z,17.64
2019-05-30T09:32:43.209Z,17.48
2019-05-30T09:35:13.101Z,17.52
2019-05-30T09:37:42.386Z,17.31
2019-05-30T09:40:12.769Z,17.32
2019-05-30T09:42:44.214Z,17.47
2019-05-30T09:45:12.800Z,17.64
2019-05-30T09:47:43.235Z,17.73
2019-05-30T09:50:11.917Z,17.81
2019-05-30T09:52:41.682Z,17.83
2019-05-30T09:55:11.042Z,17.97
2019-05-30T09:57:42.339Z,17.86
2019-05-30T10:00:13.127Z,17.76
2019-05-30T10:02:43.009Z,17.71
2019-05-30T10:05:12.329Z,17.68
2019-05-30T10:07:40.911Z,17.83
2019-05-30T10:10:09.951Z,17.88
2019-05-30T10:12:38.470Z,17.99
2019-05-30T10:15:09.555Z,18.12
2019-05-30T10:17:38.069Z,18.22
2019-05-30T10:20:08.315Z,18.18
2019-05-30T10:22:36.800Z,18.14
2019-05-30T10:25:07.212Z,18.12
2019-05-30T10:27:35.787Z,18.17
2019-05-30T10:30:09.319Z,18.27
2019-05-30T10:32:37.855Z,18.40
2019-05-30T10:35:06.908Z,18.53
2019-05-30T10:37:35.705Z,18.54
2019-05-30T10:42:33.178Z,18.62
2019-05-30T10:45:01.712Z,18.65
2019-05-30T10:47:30.202Z,18.71
2019-05-30T10:49:58.692Z,18.93
2019-05-30T10:52:27.177Z,18.97
2019-05-30T10:54:55.688Z,18.63
2019-05-30T10:57:24.115Z,18.44
2019-05-30T10:59:52.710Z,18.46
2019-05-30T11:02:21.367Z,18.24
2019-05-30T11:04:50.656Z,18.13
2019-05-30T11:07:28.121Z,18.17
2019-05-30T11:10:02.395Z,18.43
2019-05-30T11:12:30.906Z,18.36
2019-05-30T11:14:59.480Z,18.46
2019-05-30T11:17:27.956Z,18.65
2019-05-30T11:19:56.462Z,18.34
2019-05-30T11:22:24.975Z,18.02
2019-05-30T11:24:54.434Z,18.07
2019-05-30T11:27:22.936Z,18.05
2019-05-30T11:29:52.880Z,18.03
2019-05-30T11:32:21.386Z,18.46
2019-05-30T11:34:51.160Z,18.68
2019-05-30T11:37:19.659Z,18.68
2019-05-30T11:39:49.068Z,18.49
2019-05-30T11:42:17.567Z,18.41
2019-05-30T11:44:46.060Z,18.36
2019-05-30T11:47:14.554Z,18.61
2019-05-30T11:49:43.031Z,18.88
2019-05-30T11:52:11.541Z,19.14
2019-05-30T11:54:40.060Z,19.34
2019-05-30T11:57:08.546Z,19.47
2019-05-30T11:59:37.053Z,19.58
2019-05-30T12:02:05.627Z,19.65
2019-05-30T12:04:34.121Z,19.84
2019-05-30T12:07:02.648Z,19.87
2019-05-30T12:09:31.214Z,19.87
2019-05-30T12:11:59.746Z,19.95
2019-05-30T12:14:28.247Z,20.05
2019-05-30T12:16:57.319Z,20.13
2019-05-30T12:19:25.953Z,20.22
2019-05-30T12:21:55.563Z,20.41
2019-05-30T12:24:24.067Z,20.56
2019-05-30T12:26:53.815Z,20.65
2019-05-30T12:29:22.407Z,20.56
2019-05-30T12:31:52.022Z,20.47
2019-05-30T12:34:20.776Z,20.74
2019-05-30T12:36:49.268Z,20.64
2019-05-30T12:39:17.786Z,20.29
2019-05-30T12:41:46.343Z,20.13
2019-05-30T12:44:14.807Z,20.22
2019-05-30T12:46:43.308Z,20.46
2019-05-30T12:49:11.871Z,20.79
2019-05-30T12:51:40.382Z,21.11
2019-05-30T12:54:08.876Z,21.05
2019-05-30T12:56:37.404Z,21.10
2019-05-30T12:59:07.127Z,21.06
2019-05-30T13:01:35.744Z,21.24
2019-05-30T13:04:04.351Z,21.24
2019-05-30T13:06:32.801Z,21.74
2019-05-30T13:09:01.306Z,21.74
2019-05-30T13:11:29.809Z,21.75
2019-05-30T13:13:58.521Z,21.86
2019-05-30T13:16:27.155Z,21.77
2019-05-30T13:18:55.948Z,22.01
2019-05-30T13:21:24.453Z,22.12
2019-05-30T13:23:52.976Z,22.06
2019-05-30T13:26:21.450Z,22.00
2019-05-30T13:28:49.986Z,22.04
2019-05-30T13:31:18.526Z,21.79
2019-05-30T13:33:47.027Z,21.71
2019-05-30T13:36:15.489Z,21.71
2019-05-30T13:38:43.989Z,21.56
2019-05-30T13:41:12.518Z,21.67
2019-05-30T13:43:41.006Z,22.01
2019-05-30T13:46:09.694Z,22.01
2019-05-30T13:48:38.356Z,22.04
2019-05-30T13:51:07.127Z,22.10
2019-05-30T13:53:35.704Z,22.21
2019-05-30T13:56:05.417Z,22.21
2019-05-30T13:58:34.179Z,22.11
2019-05-30T14:01:07.749Z,22.07
2019-05-30T14:03:32.915Z,22.33
2019-05-30T14:06:02.994Z,22.33
2019-05-30T14:08:41.146Z,22.29
2019-05-30T14:11:02.523Z,22.14
2019-05-30T14:13:31.117Z,22.10
2019-05-30T14:16:00.787Z,22.33
2019-05-30T14:18:29.366Z,22.02
2019-05-30T14:20:57.856Z,21.92
2019-05-30T14:23:26.385Z,21.92
2019-05-30T14:25:54.881Z,21.92
2019-05-30T14:28:23.385Z,21.82
2019-05-30T14:30:51.945Z,21.84
2019-05-30T14:33:20.439Z,22.03
2019-05-30T14:35:48.930Z,22.04
2019-05-30T14:38:17.446Z,22.06
2019-05-30T14:40:45.936Z,22.24
2019-05-30T14:43:14.433Z,22.10
2019-05-30T14:45:43.025Z,22.12
2019-05-30T14:48:12.591Z,22.13
2019-05-30T14:50:41.195Z,22.18
2019-05-30T14:53:10.862Z,22.18
2019-05-30T14:55:39.485Z,22.16
2019-05-30T14:58:09.129Z,22.20
2019-05-30T15:00:37.647Z,22.26
2019-05-30T15:03:10.075Z,22.24
2019-05-30T15:05:36.421Z,22.09
2019-05-30T15:08:06.401Z,22.09
2019-05-30T15:10:34.930Z,22.02
2019-05-30T15:13:03.436Z,22.11
2019-05-30T15:15:31.974Z,22.25
2019-05-30T15:18:00.483Z,22.25
2019-05-30T15:20:28.994Z,22.51
2019-05-30T15:22:57.664Z,22.64
2019-05-30T15:25:26.147Z,22.74
2019-05-30T15:27:54.690Z,22.54
2019-05-30T15:30:23.328Z,22.23
2019-05-30T15:32:51.850Z,21.98
2019-05-30T15:35:20.410Z,21.97
2019-05-30T15:37:49.012Z,21.93
2019-05-30T15:40:17.643Z,21.73
2019-05-30T15:42:46.235Z,21.76
2019-05-30T15:45:17.992Z,21.88
2019-05-30T15:47:46.669Z,21.89
2019-05-30T15:50:16.978Z,21.80
2019-05-30T15:52:45.601Z,21.58
2019-05-30T15:55:15.385Z,21.49
2019-05-30T15:57:43.910Z,21.61
2019-05-30T16:00:14.222Z,21.64
2019-05-30T16:02:42.775Z,21.84
2019-05-30T16:05:12.534Z,21.93
2019-05-30T16:07:41.157Z,21.99
2019-05-30T16:10:10.849Z,22.25
2019-05-30T16:12:39.574Z,22.23
2019-05-30T16:15:08.806Z,22.02
2019-05-30T16:17:37.299Z,22.25
2019-05-30T16:20:07.532Z,22.24
2019-05-30T16:22:36.041Z,22.31
2019-05-30T16:25:05.910Z,22.18
2019-05-30T16:27:34.424Z,22.08
2019-05-30T16:30:03.403Z,21.99
2019-05-30T16:32:32.037Z,21.79
2019-05-30T16:35:00.575Z,21.57
2019-05-30T16:37:29.093Z,21.40
2019-05-30T16:40:05.911Z,21.21
2019-05-30T16:42:27.848Z,21.15
2019-05-30T16:44:56.339Z,21.05
2019-05-30T16:47:24.845Z,20.94
2019-05-30T16:49:53.376Z,20.87
2019-05-30T16:52:23.049Z,20.82
2019-05-30T16:54:51.643Z,20.74
2019-05-30T16:57:20.712Z,20.65
2019-05-30T16:59:49.403Z,20.64
2019-05-30T17:02:18.849Z,20.64
2019-05-30T17:04:47.444Z,20.68
2019-05-30T17:07:16.992Z,20.47
2019-05-30T17:09:45.621Z,20.45
2019-05-30T17:12:15.328Z,20.39
2019-05-30T17:14:43.958Z,20.39
2019-05-30T17:17:12.465Z,20.45
2019-05-30T17:19:40.948Z,20.49
2019-05-30T17:22:09.450Z,20.42
2019-05-30T17:24:38.058Z,20.36
2019-05-30T17:27:06.545Z,20.31
2019-05-30T17:29:35.041Z,20.31
2019-05-30T17:32:03.590Z,20.28
2019-05-30T17:34:32.082Z,20.21
2019-05-30T17:37:00.574Z,20.12
2019-05-30T17:39:29.112Z,20.08
2019-05-30T17:41:57.649Z,20.04
2019-05-30T17:44:27.194Z,19.95
2019-05-30T17:46:55.741Z,19.91
2019-05-30T17:49:24.232Z,19.91
2019-05-30T17:51:52.774Z,19.89
2019-05-30T17:54:21.758Z,19.89
2019-05-30T17:56:50.292Z,19.89
2019-05-30T17:59:20.173Z,19.89
2019-05-30T18:01:48.719Z,19.87
2019-05-30T18:04:17.216Z,19.86
2019-05-30T18:06:45.722Z,19.85
2019-05-30T18:09:14.223Z,19.81
2019-05-30T18:11:42.734Z,19.63
2019-05-30T18:14:11.409Z,19.50
2019-05-30T18:16:39.873Z,19.39
2019-05-30T18:19:08.521Z,19.31
2019-05-30T18:21:37.017Z,19.32
2019-05-30T18:24:06.037Z,19.29
2019-05-30T18:26:34.540Z,19.08
2019-05-30T18:29:03.059Z,18.99
2019-05-30T18:31:32.284Z,18.80
2019-05-30T18:34:00.947Z,18.71
2019-05-30T18:36:30.507Z,18.54
2019-05-30T18:38:59.027Z,18.41
2019-05-30T18:41:28.711Z,18.26
2019-05-30T18:43:57.610Z,18.07
2019-05-30T18:46:27.031Z,17.90
2019-05-30T18:48:55.572Z,17.80
2019-05-30T18:51:24.155Z,17.69
2019-05-30T18:53:52.682Z,17.58
2019-05-30T18:56:21.465Z,17.52
2019-05-30T18:58:49.976Z,17.55
2019-05-30T19:01:18.546Z,17.47
2019-05-30T19:03:47.368Z,17.44
2019-05-30T19:06:15.834Z,17.23
2019-05-30T19:08:44.431Z,17.08
2019-05-30T19:11:26.667Z,16.92
2019-05-30T19:13:43.203Z,16.87
2019-05-30T19:16:11.715Z,16.78
2019-05-30T19:18:40.280Z,16.66
2019-05-30T19:21:08.871Z,16.58
2019-05-30T19:23:39.649Z,16.48
2019-05-30T19:26:07.647Z,16.52
2019-05-30T19:28:36.694Z,16.54
2019-05-30T19:31:05.284Z,16.53
2019-05-30T19:33:34.862Z,16.39
2019-05-30T19:36:03.602Z,16.34
2019-05-30T19:38:33.255Z,16.33
2019-05-30T19:41:01.803Z,16.31
2019-05-30T19:43:31.642Z,16.22
2019-05-30T19:46:00.244Z,16.18
2019-05-30T19:48:28.772Z,16.18
2019-05-30T19:50:57.280Z,16.18
2019-05-30T19:53:25.782Z,16.14
2019-05-30T19:55:54.273Z,16.06
2019-05-30T19:58:22.766Z,16.02
2019-05-30T20:00:58.644Z,15.99
2019-05-30T20:03:35.707Z,15.93
2019-05-30T20:05:51.712Z,15.73
2019-05-30T20:08:20.253Z,15.72
2019-05-30T20:10:48.818Z,15.61
2019-05-30T20:13:17.444Z,15.63
2019-05-30T20:15:45.944Z,15.56
2019-05-30T20:18:14.486Z,15.49
2019-05-30T20:20:54.054Z,15.40
2019-05-30T20:23:13.409Z,15.40
2019-05-30T20:25:45.584Z,15.32
2019-05-30T20:28:12.229Z,15.24
2019-05-30T20:30:41.168Z,15.14
2019-05-30T20:33:09.833Z,14.90
2019-05-30T20:35:39.778Z,14.93
2019-05-30T20:38:08.629Z,14.93
2019-05-30T20:40:37.133Z,14.76
2019-05-30T20:43:05.684Z,14.66
2019-05-30T20:45:38.432Z,14.50
2019-05-30T20:48:04.499Z,14.53
2019-05-30T20:50:32.992Z,14.51
2019-05-30T20:53:01.503Z,14.52
2019-05-30T20:55:30.002Z,14.44
2019-05-30T20:57:58.517Z,14.38
2019-05-30T21:00:38.249Z,14.30
2019-05-30T21:03:07.091Z,14.31
2019-05-30T21:05:37.612Z,14.28
2019-05-30T21:08:06.852Z,14.23
2019-05-30T21:10:36.938Z,14.20
2019-05-30T21:13:05.866Z,14.17
2019-05-30T21:15:37.432Z,14.21
2019-05-30T21:18:06.299Z,14.17
2019-05-30T21:20:35.826Z,14.16
2019-05-30T21:23:04.507Z,14.09
2019-05-30T21:25:35.750Z,13.99
2019-05-30T21:28:03.255Z,13.98
2019-05-30T21:30:31.865Z,14.04
2019-05-30T21:33:00.363Z,14.13
2019-05-30T21:35:28.862Z,14.13
2019-05-30T21:37:57.318Z,14.04
2019-05-30T21:40:25.921Z,14.07
2019-05-30T21:43:05.438Z,14.03
2019-05-30T21:45:24.807Z,13.99
2019-05-30T21:47:53.349Z,13.95
2019-05-30T21:50:21.809Z,13.93
2019-05-30T21:52:50.355Z,13.94
2019-05-30T21:55:18.997Z,13.91
2019-05-30T21:57:48.160Z,13.89
2019-05-30T22:00:20.950Z,13.86
2019-05-30T22:02:54.407Z,13.82
2019-05-30T22:05:23.430Z,13.82
2019-05-30T22:07:51.948Z,13.70
2019-05-30T22:10:20.534Z,13.62
2019-05-30T22:12:49.722Z,13.63
2019-05-30T22:15:18.437Z,13.61
2019-05-30T22:17:47.889Z,13.58
2019-05-30T22:20:16.488Z,13.57
2019-05-30T22:22:46.034Z,13.46
2019-05-30T22:25:14.816Z,13.34
2019-05-30T22:27:44.517Z,13.32
2019-05-30T22:30:13.344Z,13.35
2019-05-30T22:32:42.602Z,13.40
2019-05-30T22:35:11.247Z,13.43
2019-05-30T22:37:39.741Z,13.48
2019-05-30T22:40:08.476Z,13.38
2019-05-30T22:42:37.000Z,13.31
2019-05-30T22:45:08.881Z,13.30
2019-05-30T22:47:37.483Z,13.19
2019-05-30T22:50:07.165Z,13.08
2019-05-30T22:52:35.657Z,12.91
2019-05-30T22:55:04.831Z,12.88
2019-05-30T22:57:33.332Z,12.90
2019-05-30T23:00:01.834Z,12.85
2019-05-30T23:02:30.344Z,12.80
2019-05-30T23:04:58.856Z,12.76
2019-05-30T23:07:27.450Z,12.77
2019-05-30T23:09:56.017Z,12.70
2019-05-30T23:12:24.469Z,12.66
2019-05-30T23:14:54.204Z,12.62
2019-05-30T23:17:22.841Z,12.70
2019-05-30T23:19:52.052Z,12.68
2019-05-30T23:22:21.697Z,12.74
2019-05-30T23:24:52.197Z,12.71
2019-05-30T23:27:20.504Z,12.65
2019-05-30T23:29:49.739Z,12.54
2019-05-30T23:32:18.286Z,12.54
2019-05-30T23:34:48.126Z,12.50
2019-05-30T23:37:16.675Z,12.49
2019-05-30T23:39:45.207Z,12.40
2019-05-30T23:42:13.724Z,12.31
2019-05-30T23:44:42.220Z,12.27
2019-05-30T23:47:10.769Z,12.30
2019-05-30T23:49:39.283Z,12.34
2019-05-30T23:52:07.851Z,12.37
2019-05-30T23:54:36.343Z,12.32
2019-05-30T23:57:04.905Z,12.30
2019-05-30T23:59:33.413Z,12.25
